createdAt,value
2018-02-21T00:01:09.704Z,51.70
2018-02-21T00:03:37.126Z,48.92
2018-02-21T00:06:04.549Z,48.90
2018-02-21T00:08:31.974Z,50.35
2018-02-21T00:10:59.390Z,47.62
2018-02-21T00:13:26.821Z,49.75
2018-02-21T00:15:54.232Z,48.75
2018-02-21T00:18:22.009Z,48.20
2018-02-21T00:20:49.425Z,49.05
2018-02-21T00:23:16.854Z,47.17
2018-02-21T00:25:44.274Z,48.47
2018-02-21T00:28:11.694Z,48.65
2018-02-21T00:30:39.118Z,48.40
2018-02-21T00:33:06.546Z,48.33
2018-02-21T00:35:33.962Z,48.75
2018-02-21T00:38:01.402Z,49.25
2018-02-21T00:40:28.827Z,49.03
2018-02-21T00:42:56.259Z,49.35
2018-02-21T00:45:23.670Z,47.95
2018-02-21T00:47:51.086Z,48.85
2018-02-21T00:50:18.505Z,49.05
2018-02-21T00:52:45.947Z,50.78
2018-02-21T00:55:13.390Z,49.95
2018-02-21T00:57:40.802Z,48.58
2018-02-21T01:00:08.213Z,50.88
2018-02-21T01:02:35.635Z,49.70
2018-02-21T01:05:03.058Z,50.70
2018-02-21T01:07:30.489Z,50.35
2018-02-21T01:09:57.908Z,49.63
2018-02-21T01:12:25.322Z,48.90
2018-02-21T01:14:52.745Z,51.15
2018-02-21T01:17:20.157Z,49.75
2018-02-21T01:19:47.599Z,49.53
2018-02-21T01:22:15.010Z,48.92
2018-02-21T01:24:42.428Z,47.28
2018-02-21T01:27:09.861Z,48.30
2018-02-21T01:29:37.278Z,47.80
2018-02-21T01:32:04.699Z,49.92
2018-02-21T01:34:32.125Z,49.00
2018-02-21T01:36:59.542Z,49.17
2018-02-21T01:39:26.982Z,49.13
2018-02-21T01:41:54.390Z,49.63
2018-02-21T01:44:21.818Z,52.20
2018-02-21T01:46:49.226Z,47.97
2018-02-21T01:49:16.641Z,48.42
2018-02-21T01:51:44.054Z,49.28
2018-02-21T01:54:11.489Z,48.65
2018-02-21T01:56:38.918Z,48.80
2018-02-21T01:59:06.334Z,50.55
2018-02-21T02:01:33.762Z,49.70
2018-02-21T02:04:01.181Z,48.72
2018-02-21T02:06:28.596Z,46.53
2018-02-21T02:08:56.017Z,50.67
2018-02-21T02:11:23.444Z,49.67
2018-02-21T02:13:50.855Z,47.88
2018-02-21T02:16:18.277Z,47.88
2018-02-21T02:18:45.685Z,46.55
2018-02-21T02:21:13.126Z,49.22
2018-02-21T02:23:40.551Z,48.28
2018-02-21T02:26:07.966Z,47.45
2018-02-21T02:28:35.391Z,46.05
2018-02-21T02:31:02.843Z,48.17
2018-02-21T02:33:30.269Z,47.42
2018-02-21T02:35:57.680Z,46.70
2018-02-21T02:38:36.956Z,46.63
2018-02-21T02:41:04.362Z,48.53
2018-02-21T02:43:31.781Z,49.75
2018-02-21T02:45:59.570Z,47.25
2018-02-21T02:48:27.005Z,50.35
2018-02-21T02:50:54.418Z,47.05
2018-02-21T02:53:21.863Z,46.83
2018-02-21T02:55:49.280Z,47.75
2018-02-21T02:58:16.694Z,48.17
2018-02-21T03:00:44.114Z,50.45
2018-02-21T03:03:11.537Z,45.17
2018-02-21T03:05:38.956Z,42.55
2018-02-21T03:08:06.383Z,46.37
2018-02-21T03:10:33.813Z,45.75
2018-02-21T03:13:01.235Z,45.53
2018-02-21T03:15:28.661Z,49.78
2018-02-21T03:17:56.069Z,46.80
2018-02-21T03:20:23.511Z,45.30
2018-02-21T03:22:50.939Z,45.22
2018-02-21T03:25:18.368Z,45.67
2018-02-21T03:27:45.773Z,45.70
2018-02-21T03:30:13.223Z,44.35
2018-02-21T03:32:40.648Z,43.70
2018-02-21T03:35:08.054Z,45.15
2018-02-21T03:37:35.477Z,45.92
2018-02-21T03:40:02.914Z,46.15
2018-02-21T03:42:30.353Z,45.03
2018-02-21T03:44:57.778Z,43.63
2018-02-21T03:47:25.200Z,44.80
2018-02-21T03:49:52.614Z,42.40
2018-02-21T03:52:20.034Z,43.63
2018-02-21T03:54:47.453Z,43.30
2018-02-21T03:57:15.355Z,42.10
2018-02-21T03:59:42.793Z,43.53
2018-02-21T04:02:10.212Z,42.60
2018-02-21T04:04:37.634Z,42.75
2018-02-21T04:07:05.050Z,44.30
2018-02-21T04:09:32.485Z,43.03
2018-02-21T04:11:59.894Z,43.60
2018-02-21T04:14:27.314Z,43.30
2018-02-21T04:16:54.733Z,41.63
2018-02-21T04:19:22.146Z,43.78
2018-02-21T04:21:49.607Z,43.35
2018-02-21T04:24:17.018Z,43.45
2018-02-21T04:26:44.438Z,42.53
2018-02-21T04:29:11.865Z,45.92
2018-02-21T04:31:39.282Z,41.58
2018-02-21T04:34:06.703Z,46.67
2018-02-21T04:36:34.122Z,44.85
2018-02-21T04:39:01.551Z,45.45
2018-02-21T04:41:28.989Z,45.47
2018-02-21T04:43:56.411Z,44.42
2018-02-21T04:46:23.826Z,47.10
2018-02-21T04:48:52.092Z,47.50
2018-02-21T04:51:19.510Z,47.53
2018-02-21T04:53:46.961Z,47.13
2018-02-21T04:56:20.003Z,49.15
2018-02-21T04:58:53.061Z,49.35
2018-02-21T05:01:20.483Z,47.47
2018-02-21T05:03:47.901Z,48.45
2018-02-21T05:06:15.323Z,48.33
2018-02-21T05:08:42.738Z,47.33
2018-02-21T05:11:10.158Z,47.10
2018-02-21T05:13:37.611Z,48.33
2018-02-21T05:16:05.018Z,49.65
2018-02-21T05:18:32.430Z,50.65
2018-02-21T05:20:59.856Z,48.80
2018-02-21T05:23:27.273Z,47.10
2018-02-21T05:25:54.741Z,50.35
2018-02-21T05:28:22.158Z,50.03
2018-02-21T05:30:49.624Z,48.80
2018-02-21T05:33:17.040Z,45.70
2018-02-21T05:35:44.458Z,49.67
2018-02-21T05:38:11.887Z,50.53
2018-02-21T05:40:39.299Z,48.83
2018-02-21T05:43:06.719Z,49.15
2018-02-21T05:45:34.199Z,48.78
2018-02-21T05:48:01.613Z,50.55
2018-02-21T05:50:29.073Z,51.10
2018-02-21T05:52:56.526Z,48.20
2018-02-21T05:55:23.957Z,49.42
2018-02-21T05:57:51.385Z,49.45
2018-02-21T06:00:18.798Z,46.60
2018-02-21T06:02:46.221Z,49.83
2018-02-21T06:05:13.655Z,48.90
2018-02-21T06:07:41.078Z,48.65
2018-02-21T06:10:08.498Z,49.55
2018-02-21T06:12:35.927Z,49.42
2018-02-21T06:15:03.567Z,52.58
2018-02-21T06:17:31.005Z,47.90
2018-02-21T06:19:58.446Z,49.55
2018-02-21T06:22:25.869Z,49.75
2018-02-21T06:24:53.296Z,47.35
2018-02-21T06:27:20.718Z,49.88
2018-02-21T06:29:48.147Z,49.47
2018-02-21T06:32:15.578Z,46.25
2018-02-21T06:34:43.002Z,47.05
2018-02-21T06:37:10.454Z,51.83
2018-02-21T06:39:37.874Z,46.60
2018-02-21T06:42:05.368Z,47.42
2018-02-21T06:44:32.808Z,47.85
2018-02-21T06:47:00.246Z,50.75
2018-02-21T06:49:27.674Z,52.75
2018-02-21T06:51:55.097Z,47.20
2018-02-21T06:54:22.545Z,47.85
2018-02-21T06:56:49.982Z,51.80
2018-02-21T06:59:17.668Z,50.60
2018-02-21T07:01:45.086Z,53.28
2018-02-21T07:04:12.522Z,52.67
2018-02-21T07:06:39.962Z,54.40
2018-02-21T07:09:07.398Z,53.90
2018-02-21T07:11:34.825Z,54.55
2018-02-21T07:14:02.257Z,52.50
2018-02-21T07:16:29.667Z,54.83
2018-02-21T07:18:57.094Z,55.83
2018-02-21T07:21:24.521Z,55.90
2018-02-21T07:23:52.283Z,54.80
2018-02-21T07:26:19.722Z,56.90
2018-02-21T07:28:47.137Z,53.47
2018-02-21T07:31:14.561Z,54.00
2018-02-21T07:33:41.978Z,57.20
2018-02-21T07:36:09.439Z,58.30
2018-02-21T07:38:36.854Z,60.15
2018-02-21T07:41:04.270Z,56.37
2018-02-21T07:43:31.693Z,56.67
2018-02-21T07:45:59.110Z,56.30
2018-02-21T07:48:26.797Z,62.35
2018-02-21T07:50:54.222Z,59.25
2018-02-21T07:53:21.638Z,59.13
2018-02-21T07:55:49.066Z,59.78
2018-02-21T07:58:16.487Z,62.17
2018-02-21T08:00:43.913Z,63.33
2018-02-21T08:03:11.346Z,61.25
2018-02-21T08:05:38.754Z,64.95
2018-02-21T08:08:06.182Z,61.40
2018-02-21T08:10:33.597Z,59.65
2018-02-21T08:13:01.495Z,62.08
2018-02-21T08:15:28.914Z,56.40
2018-02-21T08:17:56.332Z,59.08
2018-02-21T08:20:23.762Z,61.53
2018-02-21T08:22:51.186Z,61.47
2018-02-21T08:25:18.626Z,61.53
2018-02-21T08:27:46.046Z,62.47
2018-02-21T08:30:13.503Z,63.35
2018-02-21T08:32:40.952Z,64.40
2018-02-21T08:35:08.369Z,57.33
2018-02-21T08:37:36.256Z,60.33
2018-02-21T08:40:03.721Z,62.47
2018-02-21T08:42:31.139Z,63.58
2018-02-21T08:44:58.566Z,62.30
2018-02-21T08:47:26.014Z,61.65
2018-02-21T08:49:53.450Z,59.70
2018-02-21T08:52:20.886Z,60.22
2018-02-21T08:54:48.349Z,62.35
2018-02-21T08:57:15.800Z,59.47
2018-02-21T08:59:43.227Z,59.53
2018-02-21T09:02:10.953Z,57.92
2018-02-21T09:04:38.373Z,57.22
2018-02-21T09:07:05.794Z,60.38
2018-02-21T09:09:33.238Z,61.70
2018-02-21T09:12:00.670Z,57.92
2018-02-21T09:14:28.136Z,58.95
2018-02-21T09:16:55.566Z,54.45
2018-02-21T09:19:23.010Z,59.63
2018-02-21T09:21:50.471Z,58.65
2018-02-21T09:24:17.912Z,58.13
2018-02-21T09:26:45.343Z,56.45
2018-02-21T09:29:12.865Z,54.85
2018-02-21T09:31:40.254Z,56.20
2018-02-21T09:34:07.686Z,54.25
2018-02-21T09:36:35.124Z,51.47
2018-02-21T09:39:02.541Z,49.67
2018-02-21T09:41:29.949Z,51.37
2018-02-21T09:43:57.403Z,51.07
2018-02-21T09:46:24.828Z,48.23
2018-02-21T09:48:52.238Z,48.90
2018-02-21T09:51:19.670Z,50.23
2018-02-21T09:53:47.085Z,50.83
2018-02-21T09:56:14.521Z,47.83
2018-02-21T09:58:41.947Z,47.07
2018-02-21T10:01:09.370Z,44.33
2018-02-21T10:03:37.261Z,46.50
2018-02-21T10:06:04.682Z,49.30
2018-02-21T10:08:32.085Z,47.43
2018-02-21T10:10:59.531Z,49.47
2018-02-21T10:13:26.946Z,47.57
2018-02-21T10:15:54.378Z,49.13
2018-02-21T10:18:21.798Z,49.27
2018-02-21T10:20:49.233Z,44.57
2018-02-21T10:23:16.650Z,48.10
2018-02-21T10:25:44.093Z,44.73
2018-02-21T10:28:11.517Z,45.60
2018-02-21T10:30:38.936Z,43.00
2018-02-21T10:33:06.366Z,42.57
2018-02-21T10:35:33.826Z,45.00
2018-02-21T10:38:01.244Z,44.97
2018-02-21T10:40:28.683Z,44.47
2018-02-21T10:42:56.119Z,44.40
2018-02-21T10:45:23.567Z,42.57
2018-02-21T10:47:50.982Z,42.50
2018-02-21T10:50:18.401Z,44.30
2018-02-21T10:52:45.846Z,40.53
2018-02-21T10:55:13.268Z,41.77
2018-02-21T10:57:40.671Z,42.57
2018-02-21T11:00:08.098Z,43.53
2018-02-21T11:02:35.531Z,42.03
2018-02-21T11:05:02.946Z,40.57
2018-02-21T11:07:30.373Z,41.93
2018-02-21T11:09:57.806Z,39.93
2018-02-21T11:12:25.238Z,40.50
2018-02-21T11:14:52.658Z,38.67
2018-02-21T11:17:20.149Z,40.50
2018-02-21T11:19:47.574Z,42.70
2018-02-21T11:22:15.019Z,39.07
2018-02-21T11:24:42.442Z,38.70
2018-02-21T11:27:09.854Z,39.00
2018-02-21T11:29:37.310Z,40.27
2018-02-21T11:32:04.773Z,40.57
2018-02-21T11:34:32.459Z,40.30
2018-02-21T11:36:59.898Z,41.03
2018-02-21T11:39:27.328Z,39.30
2018-02-21T11:41:54.741Z,38.30
2018-02-21T11:44:22.153Z,40.00
2018-02-21T11:46:49.829Z,39.33
2018-02-21T11:49:17.243Z,37.27
2018-02-21T11:51:44.682Z,36.50
2018-02-21T11:54:12.122Z,36.03
2018-02-21T11:56:39.576Z,35.90
2018-02-21T11:59:07.025Z,32.97
2018-02-21T12:01:34.449Z,34.23
2018-02-21T12:04:01.875Z,32.90
2018-02-21T12:06:29.321Z,32.70
2018-02-21T12:08:56.799Z,32.17
2018-02-21T12:11:24.217Z,34.67
2018-02-21T12:13:51.660Z,33.07
2018-02-21T12:16:19.121Z,32.50
2018-02-21T12:18:46.592Z,35.97
2018-02-21T12:21:14.026Z,33.00
2018-02-21T12:23:41.441Z,36.97
2018-02-21T12:26:08.866Z,35.70
2018-02-21T12:28:36.317Z,37.50
2018-02-21T12:31:03.730Z,37.00
2018-02-21T12:33:31.146Z,39.17
2018-02-21T12:35:58.581Z,38.90
2018-02-21T12:38:26.006Z,40.37
2018-02-21T12:40:59.118Z,37.03
2018-02-21T12:43:26.550Z,41.60
2018-02-21T12:45:53.971Z,41.50
2018-02-21T12:48:21.422Z,39.67
2018-02-21T12:50:48.843Z,38.23
2018-02-21T12:53:16.283Z,38.53
2018-02-21T12:55:43.701Z,39.70
2018-02-21T12:58:11.134Z,39.97
2018-02-21T13:00:38.563Z,40.87
2018-02-21T13:03:06.002Z,39.50
2018-02-21T13:05:33.429Z,39.43
2018-02-21T13:08:00.856Z,39.90
2018-02-21T13:10:28.310Z,38.47
2018-02-21T13:12:55.729Z,37.57
2018-02-21T13:15:23.166Z,41.30
2018-02-21T13:17:50.589Z,39.10
2018-02-21T13:20:18.005Z,37.37
2018-02-21T13:22:45.453Z,37.03
2018-02-21T13:25:12.915Z,35.60
2018-02-21T13:27:40.392Z,37.10
2018-02-21T13:30:07.813Z,36.27
2018-02-21T13:32:35.214Z,32.77
2018-02-21T13:35:02.642Z,33.00
2018-02-21T13:37:30.094Z,34.17
2018-02-21T13:39:57.521Z,33.83
2018-02-21T13:42:24.942Z,32.60
2018-02-21T13:44:52.349Z,32.30
2018-02-21T13:47:19.782Z,30.43
2018-02-21T13:49:47.197Z,29.67
2018-02-21T13:52:14.614Z,28.80
2018-02-21T13:54:42.037Z,29.53
2018-02-21T13:57:09.455Z,28.10
2018-02-21T13:59:36.878Z,29.47
2018-02-21T14:02:04.309Z,30.13
2018-02-21T14:04:31.721Z,29.10
2018-02-21T14:06:59.147Z,29.70
2018-02-21T14:09:26.550Z,28.17
2018-02-21T14:11:53.978Z,28.27
2018-02-21T14:14:21.398Z,32.50
2018-02-21T14:16:48.823Z,31.13
2018-02-21T14:19:16.246Z,29.77
2018-02-21T14:21:43.661Z,31.57
2018-02-21T14:24:11.102Z,32.40
2018-02-21T14:26:38.510Z,34.00
2018-02-21T14:29:05.979Z,33.27
2018-02-21T14:31:33.346Z,33.93
2018-02-21T14:34:00.773Z,32.70
2018-02-21T14:36:28.202Z,32.20
2018-02-21T14:38:55.626Z,32.33
2018-02-21T14:41:23.041Z,35.13
2018-02-21T14:43:50.467Z,31.13
2018-02-21T14:46:17.877Z,31.30
2018-02-21T14:48:45.306Z,31.83
2018-02-21T14:51:12.716Z,29.77
2018-02-21T14:53:40.132Z,32.27
2018-02-21T14:56:07.550Z,33.03
2018-02-21T14:58:34.964Z,31.70
2018-02-21T15:01:02.389Z,30.60
2018-02-21T15:03:29.808Z,33.10
2018-02-21T15:05:57.220Z,32.53
2018-02-21T15:08:24.643Z,33.47
2018-02-21T15:10:52.058Z,34.63
2018-02-21T15:13:19.482Z,36.47
2018-02-21T15:15:46.891Z,34.97
2018-02-21T15:18:14.303Z,38.77
2018-02-21T15:20:41.722Z,34.77
2018-02-21T15:23:09.131Z,36.40
2018-02-21T15:25:36.557Z,36.90
2018-02-21T15:28:03.974Z,36.07
2018-02-21T15:30:31.386Z,37.17
2018-02-21T15:32:58.802Z,36.37
2018-02-21T15:35:26.211Z,35.30
2018-02-21T15:37:53.642Z,35.00
2018-02-21T15:40:21.063Z,36.50
2018-02-21T15:42:48.477Z,36.20
2018-02-21T15:45:15.904Z,38.20
2018-02-21T15:47:43.314Z,38.77
2018-02-21T15:50:10.750Z,37.80
2018-02-21T15:52:38.177Z,36.97
2018-02-21T15:55:05.587Z,35.70
2018-02-21T15:57:33.002Z,36.40
2018-02-21T16:00:00.417Z,36.67
2018-02-21T16:02:27.844Z,37.70
2018-02-21T16:04:55.271Z,37.00
2018-02-21T16:07:22.694Z,36.35
2018-02-21T16:09:50.130Z,35.90
2018-02-21T16:12:17.554Z,36.65
2018-02-21T16:14:45.002Z,36.78
2018-02-21T16:17:12.454Z,36.30
2018-02-21T16:19:39.874Z,35.88
2018-02-21T16:22:07.310Z,37.42
2018-02-21T16:24:34.729Z,39.88
2018-02-21T16:27:02.182Z,36.53
2018-02-21T16:29:29.614Z,37.75
2018-02-21T16:31:57.029Z,37.07
2018-02-21T16:34:24.458Z,36.50
2018-02-21T16:36:51.881Z,36.13
2018-02-21T16:39:19.311Z,35.55
2018-02-21T16:41:46.734Z,34.35
2018-02-21T16:44:14.171Z,37.05
2018-02-21T16:46:41.605Z,36.33
2018-02-21T16:49:09.021Z,32.58
2018-02-21T16:51:36.461Z,32.35
2018-02-21T16:54:09.481Z,30.90
2018-02-21T16:56:36.929Z,32.75
2018-02-21T16:59:04.341Z,30.23
2018-02-21T17:01:31.755Z,30.92
2018-02-21T17:03:59.180Z,31.25
2018-02-21T17:06:26.594Z,30.65
2018-02-21T17:08:54.022Z,28.33
2018-02-21T17:11:21.439Z,29.55
2018-02-21T17:13:48.870Z,27.67
2018-02-21T17:16:16.298Z,28.70
2018-02-21T17:18:43.726Z,29.10
2018-02-21T17:21:11.157Z,27.98
2018-02-21T17:23:38.578Z,29.02
2018-02-21T17:26:05.998Z,30.05
2018-02-21T17:28:33.426Z,29.10
2018-02-21T17:31:00.850Z,27.35
2018-02-21T17:33:28.295Z,27.50
2018-02-21T17:35:55.714Z,27.83
2018-02-21T17:38:23.141Z,31.50
2018-02-21T17:40:56.096Z,29.58
2018-02-21T17:43:23.525Z,29.15
2018-02-21T17:45:50.958Z,30.12
2018-02-21T17:48:18.399Z,29.83
2018-02-21T17:50:45.818Z,29.95
2018-02-21T17:53:13.251Z,28.95
2018-02-21T17:55:40.674Z,29.00
2018-02-21T17:58:08.102Z,29.70
2018-02-21T18:00:35.521Z,28.77
2018-02-21T18:03:02.941Z,29.30
2018-02-21T18:05:30.369Z,31.65
2018-02-21T18:07:57.789Z,31.02
2018-02-21T18:10:25.231Z,29.63
2018-02-21T18:12:52.657Z,30.20
2018-02-21T18:15:20.077Z,29.87
2018-02-21T18:17:47.509Z,28.90
2018-02-21T18:20:14.933Z,29.35
2018-02-21T18:22:42.728Z,29.12
2018-02-21T18:25:10.150Z,30.12
2018-02-21T18:27:37.566Z,28.92
2018-02-21T18:30:04.998Z,29.90
2018-02-21T18:32:32.414Z,30.50
2018-02-21T18:34:59.861Z,29.55
2018-02-21T18:37:27.286Z,30.17
2018-02-21T18:39:54.705Z,31.30
2018-02-21T18:42:22.161Z,30.62
2018-02-21T18:44:49.610Z,29.42
2018-02-21T18:47:17.022Z,29.83
2018-02-21T18:49:44.476Z,30.40
2018-02-21T18:52:11.891Z,30.35
2018-02-21T18:54:39.328Z,30.85
2018-02-21T18:57:06.741Z,31.35
2018-02-21T18:59:34.166Z,29.63
2018-02-21T19:02:01.592Z,29.37
2018-02-21T19:04:29.027Z,31.73
2018-02-21T19:06:56.473Z,29.85
2018-02-21T19:09:23.903Z,30.92
2018-02-21T19:11:51.326Z,29.35
2018-02-21T19:14:18.754Z,29.33
2018-02-21T19:16:46.178Z,29.25
2018-02-21T19:19:13.607Z,28.40
2018-02-21T19:21:41.026Z,29.75
2018-02-21T19:24:08.454Z,29.02
2018-02-21T19:26:35.878Z,28.65
2018-02-21T19:29:03.298Z,28.45
2018-02-21T19:31:30.734Z,30.50
2018-02-21T19:33:58.154Z,32.30
2018-02-21T19:36:25.577Z,30.05
2018-02-21T19:38:53.002Z,29.42
2018-02-21T19:41:20.424Z,31.00
2018-02-21T19:43:47.854Z,29.77
2018-02-21T19:46:15.262Z,29.60
2018-02-21T19:48:42.685Z,29.98
2018-02-21T19:51:10.126Z,31.25
2018-02-21T19:53:38.503Z,30.52
2018-02-21T19:56:05.956Z,29.63
2018-02-21T19:58:33.366Z,30.15
2018-02-21T20:01:00.789Z,29.35
2018-02-21T20:03:28.205Z,29.15
2018-02-21T20:05:55.621Z,29.02
2018-02-21T20:08:23.057Z,28.02
2018-02-21T20:10:50.466Z,28.30
2018-02-21T20:13:17.915Z,30.17
2018-02-21T20:15:45.313Z,31.20
2018-02-21T20:18:12.735Z,28.62
2018-02-21T20:20:40.170Z,29.52
2018-02-21T20:23:07.593Z,27.48
2018-02-21T20:25:35.075Z,28.23
2018-02-21T20:28:02.577Z,28.77
2018-02-21T20:30:30.027Z,30.73
2018-02-21T20:32:57.545Z,29.80
2018-02-21T20:35:25.090Z,30.20
2018-02-21T20:37:52.497Z,30.27
2018-02-21T20:40:19.921Z,30.77
2018-02-21T20:42:47.334Z,29.92
2018-02-21T20:45:14.775Z,31.58
2018-02-21T20:47:42.189Z,30.98
2018-02-21T20:50:09.601Z,30.88
2018-02-21T20:52:37.034Z,31.15
2018-02-21T20:55:04.450Z,30.23
2018-02-21T20:57:31.877Z,30.02
2018-02-21T20:59:59.298Z,30.15
2018-02-21T21:02:26.711Z,29.52
2018-02-21T21:04:54.136Z,31.30
2018-02-21T21:07:21.556Z,29.20
2018-02-21T21:09:48.981Z,30.73
2018-02-21T21:12:16.405Z,30.95
2018-02-21T21:14:43.826Z,32.92
2018-02-21T21:17:11.244Z,29.52
2018-02-21T21:19:38.653Z,32.17
2018-02-21T21:22:06.478Z,32.75
2018-02-21T21:24:33.906Z,31.33
2018-02-21T21:27:01.326Z,31.35
2018-02-21T21:29:28.758Z,33.58
2018-02-21T21:31:56.169Z,32.38
2018-02-21T21:34:23.703Z,32.13
2018-02-21T21:36:51.113Z,32.13
2018-02-21T21:39:18.530Z,35.30
2018-02-21T21:41:45.950Z,32.22
2018-02-21T21:44:13.362Z,32.47
2018-02-21T21:46:40.790Z,33.20
2018-02-21T21:49:08.210Z,34.60
2018-02-21T21:51:35.635Z,34.90
2018-02-21T21:54:03.058Z,34.28
2018-02-21T21:56:30.504Z,33.65
2018-02-21T21:58:57.906Z,33.78
2018-02-21T22:01:25.330Z,33.97
2018-02-21T22:03:52.741Z,35.17
2018-02-21T22:06:20.162Z,33.30
2018-02-21T22:08:47.586Z,32.83
2018-02-21T22:11:15.015Z,34.47
2018-02-21T22:13:42.429Z,34.03
2018-02-21T22:16:09.842Z,36.38
2018-02-21T22:18:37.282Z,35.33
2018-02-21T22:21:04.699Z,35.17
2018-02-21T22:23:32.137Z,35.58
2018-02-21T22:25:59.561Z,35.35
2018-02-21T22:28:26.974Z,35.90
2018-02-21T22:30:54.391Z,33.58
2018-02-21T22:33:21.835Z,37.33
2018-02-21T22:35:49.253Z,36.25
2018-02-21T22:38:16.681Z,35.03
2018-02-21T22:40:44.090Z,36.95
2018-02-21T22:43:11.510Z,35.55
2018-02-21T22:45:38.926Z,36.85
2018-02-21T22:48:06.354Z,36.15
2018-02-21T22:50:33.769Z,36.78
2018-02-21T22:53:01.190Z,36.78
2018-02-21T22:55:28.626Z,36.17
2018-02-21T22:57:56.042Z,37.88
2018-02-21T23:00:23.486Z,39.42
2018-02-21T23:02:50.914Z,40.03
2018-02-21T23:05:18.330Z,36.00
2018-02-21T23:07:45.762Z,37.72
2018-02-21T23:10:13.175Z,38.60
2018-02-21T23:12:40.598Z,35.85
2018-02-21T23:15:08.015Z,37.00
2018-02-21T23:17:35.447Z,38.13
2018-02-21T23:20:02.861Z,38.30
2018-02-21T23:22:30.306Z,38.00
2018-02-21T23:24:57.835Z,37.30
2018-02-21T23:27:25.270Z,38.08
2018-02-21T23:29:52.682Z,34.97
2018-02-21T23:32:20.121Z,37.53
2018-02-21T23:34:47.549Z,36.72
2018-02-21T23:37:14.974Z,35.75
2018-02-21T23:39:42.385Z,38.35
2018-02-21T23:42:09.814Z,37.30
2018-02-21T23:44:37.247Z,38.55
2018-02-21T23:47:04.670Z,37.88
2018-02-21T23:49:32.093Z,36.88
2018-02-21T23:51:59.510Z,37.60
2018-02-21T23:54:26.959Z,37.88
2018-02-21T23:56:54.395Z,36.22
2018-02-21T23:59:21.813Z,37.15
